Time;durP1;ratioP1;P1;durP2;ratioP2;P2;SDS_P1;SDS_P2;PMS_P1;PMS_P2;Temp;Humidity;BMP_temperature;BMP_pressure;BME280_temperature;BME280_humidity;BME280_pressure;Samples;Min_cycle;Max_cycle;Signal;HPM_P1;HPM_P2
2023/10/14 00:01:54;;;;;;;115.73;7.57;;;;;;;;;;4950004;28;20414;-53
2023/10/14 00:04:22;;;;;;;187.82;11.38;;;;;;;;;;4951256;28;20266;-54
2023/10/14 00:06:47;;;;;;;147.07;8.55;;;;;;;;;;4947097;28;20030;-54
2023/10/14 00:09:13;;;;;;;186.75;10.20;;;;;;;;;;4948330;28;20041;-53
2023/10/14 00:11:49;;;;;;;132.07;7.43;;;;;;;;;;4949087;28;20046;-53
2023/10/14 00:14:16;;;;;;;191.25;11.43;;;;;;;;;;4947559;28;20034;-54
2023/10/14 00:16:48;;;;;;;106.40;7.28;;;;;;;;;;4949381;28;20054;-54
2023/10/14 00:19:14;;;;;;;204.20;11.05;;;;;;;;;;4947509;28;20037;-52
2023/10/14 00:21:42;;;;;;;79.35;6.47;;;;;;;;;;4950221;28;20035;-53
2023/10/14 00:24:07;;;;;;;145.02;9.02;;;;;;;;;;4948339;28;20018;-54
2023/10/14 00:26:33;;;;;;;82.00;7.93;;;;;;;;;;4947675;28;20466;-53
2023/10/14 00:29:32;;;;;;;106.40;8.48;;;;;;;;;;4950412;28;20402;-52
2023/10/14 00:31:51;;;;;;;69.20;6.53;;;;;;;;;;4947161;28;20078;-53
2023/10/14 00:34:23;;;;;;;146.75;9.38;;;;;;;;;;4948469;28;20105;-53
2023/10/14 00:36:49;;;;;;;99.57;7.22;;;;;;;;;;4949560;28;20027;-55
2023/10/14 00:39:16;;;;;;;159.55;9.70;;;;;;;;;;4949373;28;20038;-53
2023/10/14 00:41:50;;;;;;;99.13;7.22;;;;;;;;;;4949437;28;20126;-52
2023/10/14 00:44:15;;;;;;;154.07;9.20;;;;;;;;;;4949654;28;20022;-55
2023/10/14 00:46:50;;;;;;;104.53;7.47;;;;;;;;;;4950415;28;20457;-54
2023/10/14 00:49:31;;;;;;;146.93;9.65;;;;;;;;;;4949801;28;20031;-53
2023/10/14 00:51:59;;;;;;;136.85;9.15;;;;;;;;;;4949974;28;20046;-54
2023/10/14 00:54:40;;;;;;;236.30;13.90;;;;;;;;;;4947918;28;20429;-54
2023/10/14 00:57:37;;;;;;;140.07;8.83;;;;;;;;;;4950353;28;20399;-53
2023/10/14 00:59:53;;;;;;;108.05;7.80;;;;;;;;;;4949161;28;20054;-53
2023/10/14 01:02:31;;;;;;;178.95;11.18;;;;;;;;;;4949671;28;20053;-53
2023/10/14 01:04:58;;;;;;;130.02;8.82;;;;;;;;;;4949291;28;20561;-55
2023/10/14 01:07:24;;;;;;;193.52;12.30;;;;;;;;;;4946946;28;20070;-55
2023/10/14 01:09:52;;;;;;;147.47;8.73;;;;;;;;;;4947362;28;20697;-55
2023/10/14 01:12:20;;;;;;;163.05;10.80;;;;;;;;;;4946775;28;20294;-54
2023/10/14 01:14:46;;;;;;;108.72;8.65;;;;;;;;;;4950067;28;20012;-54
2023/10/14 01:17:20;;;;;;;147.30;9.65;;;;;;;;;;4948130;28;20046;-53
2023/10/14 01:19:46;;;;;;;139.05;9.40;;;;;;;;;;4948103;28;20024;-55
2023/10/14 01:22:12;;;;;;;202.20;11.88;;;;;;;;;;4947975;28;20043;-53
2023/10/14 01:24:41;;;;;;;110.43;8.00;;;;;;;;;;4948778;28;20027;-54
2023/10/14 01:27:07;;;;;;;71.55;6.78;;;;;;;;;;4947924;28;20171;-54
2023/10/14 01:29:39;;;;;;;163.02;10.43;;;;;;;;;;4947339;28;20113;-55
2023/10/14 01:32:36;;;;;;;91.57;6.88;;;;;;;;;;4949524;28;20035;-53
2023/10/14 01:35:12;;;;;;;111.18;8.27;;;;;;;;;;4950900;28;20562;-56
2023/10/14 01:37:38;;;;;;;97.90;6.90;;;;;;;;;;4974378;28;20041;-53
2023/10/14 01:40:17;;;;;;;97.90;6.80;;;;;;;;;;4970234;28;20011;-54
2023/10/14 01:42:42;;;;;;;99.75;6.70;;;;;;;;;;4970193;28;20039;-55
2023/10/14 01:45:08;;;;;;;82.65;6.13;;;;;;;;;;4972406;28;20026;-54
2023/10/14 01:47:35;;;;;;;88.22;6.43;;;;;;;;;;4970097;28;20093;-53
2023/10/14 01:50:01;;;;;;;135.10;7.85;;;;;;;;;;4971483;28;20459;-54
2023/10/14 01:52:26;;;;;;;177.25;9.25;;;;;;;;;;4968422;28;20053;-54
2023/10/14 01:54:51;;;;;;;98.65;6.55;;;;;;;;;;4973531;28;20081;-53
2023/10/14 01:57:17;;;;;;;215.68;11.23;;;;;;;;;;4970989;28;20082;-55
2023/10/14 01:59:46;;;;;;;119.78;7.10;;;;;;;;;;4970627;28;20026;-53
2023/10/14 02:02:12;;;;;;;91.38;5.80;;;;;;;;;;4971229;28;20042;-55
2023/10/14 02:04:37;;;;;;;133.75;7.43;;;;;;;;;;4971551;28;20394;-54
2023/10/14 02:07:19;;;;;;;105.45;27.75;;;;;;;;;;4970238;28;20493;-54
2023/10/14 02:09:44;;;;;;;168.93;8.83;;;;;;;;;;4968907;28;20034;-54
2023/10/14 02:12:11;;;;;;;213.15;126.57;;;;;;;;;;4972668;28;20357;-54
2023/10/14 02:14:39;;;;;;;107.22;6.70;;;;;;;;;;4970730;28;20078;-53
2023/10/14 02:17:04;;;;;;;128.88;7.35;;;;;;;;;;4969917;28;20113;-54
2023/10/14 02:21:57;;;;;;;108.57;6.43;;;;;;;;;;4971525;28;20100;-54
2023/10/14 02:24:23;;;;;;;162.77;8.73;;;;;;;;;;4971078;28;20349;-53
2023/10/14 02:26:48;;;;;;;119.20;6.60;;;;;;;;;;4970245;28;20918;-54
2023/10/14 02:29:15;;;;;;;130.73;7.20;;;;;;;;;;4967569;28;20030;-53
2023/10/14 02:31:43;;;;;;;93.18;6.65;;;;;;;;;;4977974;28;20627;-54
2023/10/14 02:34:09;;;;;;;102.43;6.35;;;;;;;;;;4969885;28;20027;-53
2023/10/14 02:36:35;;;;;;;113.70;6.63;;;;;;;;;;4966771;28;20031;-55
2023/10/14 02:39:16;;;;;;;114.03;7.03;;;;;;;;;;4969989;28;20027;-54
2023/10/14 02:41:44;;;;;;;173.02;67.70;;;;;;;;;;4969080;28;20039;-54
2023/10/14 02:46:46;;;;;;;77.13;6.57;;;;;;;;;;4967156;28;20039;-54
2023/10/14 02:49:14;;;;;;;101.18;6.50;;;;;;;;;;4969124;28;20249;-55
2023/10/14 02:51:43;;;;;;;170.32;55.90;;;;;;;;;;4968654;28;20061;-53
2023/10/14 02:54:15;;;;;;;92.63;5.97;;;;;;;;;;4970506;28;20089;-55
2023/10/14 02:57:06;;;;;;;;;;;;;;;;;;4968464;28;20035;-52
2023/10/14 02:59:44;;;;;;;283.92;59.40;;;;;;;;;;4968629;28;20041;-53
2023/10/14 03:08:07;;;;;;;175.65;31.40;;;;;;;;;;4969254;28;20134;-54
2023/10/14 03:12:51;;;;;;;109.28;8.90;;;;;;;;;;4970072;28;20556;-55
2023/10/14 03:15:20;;;;;;;175.13;29.52;;;;;;;;;;4967831;28;20011;-52
2023/10/14 03:17:58;;;;;;;210.65;74.47;;;;;;;;;;4971312;28;20061;-54
2023/10/14 03:23:00;;;;;;;280.70;155.13;;;;;;;;;;4969175;28;20114;-54
2023/10/14 03:25:27;;;;;;;264.40;50.15;;;;;;;;;;4966855;28;20433;-54
2023/10/14 03:28:00;;;;;;;116.50;8.48;;;;;;;;;;4970058;28;20050;-55
2023/10/14 03:30:26;;;;;;;162.07;11.55;;;;;;;;;;4970155;28;20023;-54
2023/10/14 03:32:52;;;;;;;116.95;9.90;;;;;;;;;;4973336;28;20536;-52
2023/10/14 03:35:23;;;;;;;174.50;32.87;;;;;;;;;;4971252;28;20054;-53
2023/10/14 03:37:58;;;;;;;224.33;61.13;;;;;;;;;;4971857;28;20254;-54
2023/10/14 03:40:52;;;;;;;140.77;14.50;;;;;;;;;;4971035;28;20807;-54
2023/10/14 03:43:18;;;;;;;102.55;7.78;;;;;;;;;;4970138;28;20500;-54
2023/10/14 03:45:56;;;;;;;130.23;17.42;;;;;;;;;;4971417;28;20576;-54
2023/10/14 03:48:27;;;;;;;147.82;8.63;;;;;;;;;;4970834;28;20755;-55
2023/10/14 03:50:54;;;;;;;362.45;206.10;;;;;;;;;;4970408;28;20498;-53
2023/10/14 03:53:19;;;;;;;155.95;25.55;;;;;;;;;;4969347;28;20026;-54
2023/10/14 03:55:45;;;;;;;151.15;51.95;;;;;;;;;;4969863;28;20383;-55
2023/10/14 03:58:12;;;;;;;153.45;32.95;;;;;;;;;;4970311;28;20029;-54
2023/10/14 04:00:37;;;;;;;134.32;17.30;;;;;;;;;;4968380;28;20038;-53
2023/10/14 04:03:12;;;;;;;98.60;14.32;;;;;;;;;;4969361;28;20021;-54
2023/10/14 04:05:44;;;;;;;143.95;39.15;;;;;;;;;;4968940;28;20036;-53
2023/10/14 04:08:12;;;;;;;106.93;11.63;;;;;;;;;;4971017;28;20050;-54
2023/10/14 04:10:38;;;;;;;115.68;13.05;;;;;;;;;;4968841;28;20093;-52
2023/10/14 04:13:04;;;;;;;307.70;139.88;;;;;;;;;;4969040;28;20026;-53
2023/10/14 04:17:55;;;;;;;73.32;6.20;;;;;;;;;;4971507;28;20654;-54
2023/10/14 04:20:32;;;;;;;193.02;25.40;;;;;;;;;;4969116;28;20038;-53
2023/10/14 04:22:58;;;;;;;126.18;31.92;;;;;;;;;;4970382;28;20387;-55
2023/10/14 04:25:38;;;;;;;173.45;30.33;;;;;;;;;;4972312;28;20498;-55
2023/10/14 04:28:30;;;;;;;187.13;51.47;;;;;;;;;;4969941;28;20030;-53
2023/10/14 04:31:00;;;;;;;104.82;7.22;;;;;;;;;;4977796;28;20042;-55
2023/10/14 04:33:33;;;;;;;189.98;42.63;;;;;;;;;;4970019;28;20031;-55
2023/10/14 04:38:44;;;;;;;139.80;27.00;;;;;;;;;;4960028;28;20030;-53
2023/10/14 04:41:13;;;;;;;162.10;46.63;;;;;;;;;;4955515;28;20041;-54
2023/10/14 04:46:16;;;;;;;244.55;144.35;;;;;;;;;;4967930;28;20033;-54
2023/10/14 04:48:50;;;;;;;118.55;11.05;;;;;;;;;;4969568;28;20109;-53
2023/10/14 04:51:15;;;;;;;107.45;10.82;;;;;;;;;;4970496;28;20046;-54
2023/10/14 04:53:43;;;;;;;166.63;46.20;;;;;;;;;;4968582;28;20023;-54
2023/10/14 04:56:09;;;;;;;129.27;15.30;;;;;;;;;;4969730;28;20051;-53
2023/10/14 04:58:34;;;;;;;195.98;44.45;;;;;;;;;;4970031;28;20052;-52
2023/10/14 05:01:03;;;;;;;154.63;44.92;;;;;;;;;;4970193;28;20062;-53
2023/10/14 05:03:29;;;;;;;180.65;68.43;;;;;;;;;;4968714;28;20218;-55
2023/10/14 05:06:14;;;;;;;163.07;38.08;;;;;;;;;;4969555;28;20035;-55
2023/10/14 05:08:49;;;;;;;97.63;15.57;;;;;;;;;;4968719;28;20033;-55
2023/10/14 05:11:18;;;;;;;160.18;18.08;;;;;;;;;;4971544;28;20042;-54
2023/10/14 05:13:44;;;;;;;140.52;56.63;;;;;;;;;;4972484;28;20037;-54
2023/10/14 05:16:20;;;;;;;111.85;12.40;;;;;;;;;;4975589;28;20050;-54
2023/10/14 05:18:59;;;;;;;99.60;8.52;;;;;;;;;;4974640;28;20410;-54
2023/10/14 05:21:42;;;;;;;141.40;11.23;;;;;;;;;;4971979;28;20130;-54
2023/10/14 05:24:09;;;;;;;96.30;7.95;;;;;;;;;;4973354;28;20038;-55
2023/10/14 05:26:36;;;;;;;102.63;11.02;;;;;;;;;;4973809;28;20052;-54
2023/10/14 05:29:11;;;;;;;187.88;60.15;;;;;;;;;;4971855;28;20409;-54
2023/10/14 05:31:36;;;;;;;126.68;9.05;;;;;;;;;;4973596;28;20631;-53
2023/10/14 05:34:01;;;;;;;130.57;16.17;;;;;;;;;;4972624;28;20027;-53
2023/10/14 05:36:27;;;;;;;109.82;11.88;;;;;;;;;;4974591;28;20100;-54
2023/10/14 05:38:52;;;;;;;174.48;35.90;;;;;;;;;;4974562;28;20026;-53
2023/10/14 05:41:17;;;;;;;130.90;9.50;;;;;;;;;;4972566;28;20043;-55
2023/10/14 05:43:43;;;;;;;115.38;11.27;;;;;;;;;;4973256;28;20117;-53
2023/10/14 05:46:12;;;;;;;83.90;7.60;;;;;;;;;;4972431;28;20077;-54
2023/10/14 05:48:37;;;;;;;222.85;15.65;;;;;;;;;;4975409;28;20022;-54
2023/10/14 05:51:02;;;;;;;147.40;38.13;;;;;;;;;;4971519;28;20405;-55
2023/10/14 05:53:28;;;;;;;256.90;36.72;;;;;;;;;;4972593;28;20274;-54
2023/10/14 05:56:09;;;;;;;203.63;22.20;;;;;;;;;;4973429;28;20034;-54
2023/10/14 05:58:36;;;;;;;154.13;8.43;;;;;;;;;;4972343;28;20027;-54
2023/10/14 06:01:07;;;;;;;232.45;37.60;;;;;;;;;;4970360;28;20156;-54
2023/10/14 06:03:32;;;;;;;270.10;53.47;;;;;;;;;;4969277;28;20026;-55
2023/10/14 06:06:01;;;;;;;123.53;7.87;;;;;;;;;;4973124;28;20045;-55
2023/10/14 06:08:26;;;;;;;202.57;24.58;;;;;;;;;;4970990;28;20368;-54
2023/10/14 06:10:53;;;;;;;98.73;8.60;;;;;;;;;;4972112;28;20066;-55
2023/10/14 06:13:19;;;;;;;68.03;5.70;;;;;;;;;;4972803;28;20333;-54
2023/10/14 06:15:45;;;;;;;80.80;9.07;;;;;;;;;;4972155;28;20282;-53
2023/10/14 06:18:14;;;;;;;90.68;6.93;;;;;;;;;;4970929;28;20030;-54
2023/10/14 06:20:41;;;;;;;156.63;17.15;;;;;;;;;;4971338;28;20041;-53
2023/10/14 06:23:08;;;;;;;185.48;33.38;;;;;;;;;;4972388;28;20025;-54
2023/10/14 06:25:34;;;;;;;157.30;32.25;;;;;;;;;;4971203;28;20398;-55
2023/10/14 06:28:02;;;;;;;139.85;9.75;;;;;;;;;;4979561;28;20085;-54
2023/10/14 06:30:28;;;;;;;146.68;14.43;;;;;;;;;;4971484;28;20038;-55
2023/10/14 06:33:06;;;;;;;102.38;6.55;;;;;;;;;;4973528;28;20023;-55
2023/10/14 06:35:37;;;;;;;148.38;8.32;;;;;;;;;;4972060;28;20045;-53
2023/10/14 06:38:05;;;;;;;89.25;7.80;;;;;;;;;;4974431;28;20515;-53
2023/10/14 06:40:37;;;;;;;189.20;16.30;;;;;;;;;;4969954;28;20089;-55
2023/10/14 06:43:07;;;;;;;176.05;30.65;;;;;;;;;;4970897;28;20148;-53
2023/10/14 06:45:33;;;;;;;202.95;35.78;;;;;;;;;;4971119;28;20053;-53
2023/10/14 06:47:58;;;;;;;148.82;22.55;;;;;;;;;;4971366;28;20022;-55
2023/10/14 06:50:24;;;;;;;125.10;6.90;;;;;;;;;;4970024;28;20023;-54
2023/10/14 06:52:50;;;;;;;139.40;7.73;;;;;;;;;;4971399;28;20114;-54
2023/10/14 06:55:21;;;;;;;198.45;45.20;;;;;;;;;;4967797;28;20378;-53
2023/10/14 06:57:47;;;;;;;201.00;32.85;;;;;;;;;;4969974;28;20011;-53
2023/10/14 07:00:13;;;;;;;204.65;42.63;;;;;;;;;;4968857;28;20094;-52
2023/10/14 07:02:38;;;;;;;155.90;12.68;;;;;;;;;;4970451;28;20457;-54
2023/10/14 07:05:04;;;;;;;206.35;115.40;;;;;;;;;;4970025;28;20022;-55
2023/10/14 07:07:29;;;;;;;152.45;8.02;;;;;;;;;;4970503;28;20031;-54
2023/10/14 07:09:55;;;;;;;100.18;13.73;;;;;;;;;;4970284;28;20494;-54
2023/10/14 07:12:21;;;;;;;134.80;6.43;;;;;;;;;;4968772;28;20150;-53
2023/10/14 07:14:46;;;;;;;136.82;18.85;;;;;;;;;;4969804;28;20422;-53
2023/10/14 07:17:17;;;;;;;146.25;34.15;;;;;;;;;;4972209;28;20121;-54
2023/10/14 07:19:43;;;;;;;141.70;13.18;;;;;;;;;;4967959;28;20026;-52
2023/10/14 07:22:08;;;;;;;145.63;45.43;;;;;;;;;;4969629;28;20217;-53
2023/10/14 07:24:35;;;;;;;198.20;75.60;;;;;;;;;;4968499;28;20277;-54
2023/10/14 07:27:00;;;;;;;150.52;13.82;;;;;;;;;;4969503;28;20356;-54
2023/10/14 07:29:26;;;;;;;141.50;28.63;;;;;;;;;;4969508;28;20030;-54
2023/10/14 07:31:52;;;;;;;136.48;29.83;;;;;;;;;;4968853;28;20035;-54
2023/10/14 07:34:18;;;;;;;120.05;16.42;;;;;;;;;;4971027;28;20014;-54
2023/10/14 07:36:43;;;;;;;91.53;4.70;;;;;;;;;;4973029;28;20031;-55
2023/10/14 07:42:13;;;;;;;196.63;38.08;;;;;;;;;;4965862;28;20577;-54
2023/10/14 07:44:38;;;;;;;169.55;13.73;;;;;;;;;;4971154;28;20485;-53
2023/10/14 07:47:05;;;;;;;279.58;54.10;;;;;;;;;;4970563;28;20038;-54
2023/10/14 07:49:32;;;;;;;188.02;24.65;;;;;;;;;;4970381;28;20023;-52
2023/10/14 07:52:00;;;;;;;207.30;87.57;;;;;;;;;;4969555;28;20030;-54
2023/10/14 07:54:27;;;;;;;247.30;69.22;;;;;;;;;;4973742;28;20027;-53
2023/10/14 07:56:53;;;;;;;151.55;11.38;;;;;;;;;;4967543;28;20030;-53
2023/10/14 07:59:19;;;;;;;153.25;16.05;;;;;;;;;;4967735;28;20604;-54
2023/10/14 08:01:45;;;;;;;141.32;52.80;;;;;;;;;;4969275;28;20074;-55
2023/10/14 08:04:14;;;;;;;116.07;6.00;;;;;;;;;;4970381;28;20120;-54
2023/10/14 08:06:40;;;;;;;202.30;46.13;;;;;;;;;;4968869;28;20042;-54
2023/10/14 08:09:05;;;;;;;171.85;61.22;;;;;;;;;;4969437;28;20106;-53
2023/10/14 08:11:37;;;;;;;313.23;48.78;;;;;;;;;;4967342;28;20394;-54
2023/10/14 08:14:06;;;;;;;147.82;24.25;;;;;;;;;;4970717;28;20085;-54
2023/10/14 08:16:31;;;;;;;326.10;58.05;;;;;;;;;;4967485;28;20462;-55
2023/10/14 08:18:56;;;;;;;213.03;24.10;;;;;;;;;;4968218;28;20110;-55
2023/10/14 08:21:21;;;;;;;136.13;18.87;;;;;;;;;;4966907;28;20626;-55
2023/10/14 08:23:47;;;;;;;136.13;35.92;;;;;;;;;;4967798;28;20058;-55
2023/10/14 08:26:16;;;;;;;201.38;37.55;;;;;;;;;;4966113;28;20059;-55
2023/10/14 08:28:42;;;;;;;195.02;53.80;;;;;;;;;;4968521;28;20022;-55
2023/10/14 08:31:08;;;;;;;236.43;115.97;;;;;;;;;;4968452;28;20886;-55
2023/10/14 08:33:33;;;;;;;193.57;9.80;;;;;;;;;;4966553;28;20014;-54
2023/10/14 08:35:58;;;;;;;168.50;72.43;;;;;;;;;;4967099;28;20034;-56
2023/10/14 08:38:27;;;;;;;111.90;6.20;;;;;;;;;;4969575;28;20276;-53
2023/10/14 08:40:56;;;;;;;120.80;19.25;;;;;;;;;;4965268;28;20034;-54
2023/10/14 08:43:28;;;;;;;183.18;58.78;;;;;;;;;;4969111;28;20026;-54
2023/10/14 08:45:54;;;;;;;159.93;21.73;;;;;;;;;;4970198;28;20810;-54
2023/10/14 08:48:23;;;;;;;226.75;122.00;;;;;;;;;;4972119;28;20018;-55
2023/10/14 08:50:50;;;;;;;247.25;76.85;;;;;;;;;;4965885;28;20093;-55
2023/10/14 08:53:15;;;;;;;160.02;45.45;;;;;;;;;;4972990;28;20473;-54
2023/10/14 08:55:41;;;;;;;229.80;49.45;;;;;;;;;;4970626;28;20097;-54
2023/10/14 08:58:13;;;;;;;292.15;50.63;;;;;;;;;;4972194;28;20501;-53
2023/10/14 09:00:39;;;;;;;200.25;24.67;;;;;;;;;;4970412;28;20023;-54
2023/10/14 09:03:09;;;;;;;163.95;34.08;;;;;;;;;;4972189;28;20489;-54
2023/10/14 09:05:39;;;;;;;214.90;54.17;;;;;;;;;;4971619;28;20044;-56
2023/10/14 09:08:05;;;;;;;249.07;48.78;;;;;;;;;;4972896;28;20434;-55
2023/10/14 09:10:32;;;;;;;216.32;32.72;;;;;;;;;;4968656;28;20490;-54
2023/10/14 09:12:58;;;;;;;167.65;31.55;;;;;;;;;;4972902;28;20072;-54
2023/10/14 09:15:27;;;;;;;150.10;29.58;;;;;;;;;;4971761;28;20050;-53
2023/10/14 09:17:56;;;;;;;216.15;108.05;;;;;;;;;;4970727;28;20042;-55
2023/10/14 09:20:29;;;;;;;125.40;10.35;;;;;;;;;;4968078;28;20133;-54
2023/10/14 09:23:15;;;;;;;117.60;33.42;;;;;;;;;;4969537;28;20018;-55
2023/10/14 09:25:52;;;;;;;225.38;42.15;;;;;;;;;;4969358;28;20031;-55
2023/10/14 09:28:20;;;;;;;228.20;105.97;;;;;;;;;;4969705;28;20030;-51
2023/10/14 09:30:46;;;;;;;149.93;12.82;;;;;;;;;;4972322;28;20066;-53
2023/10/14 09:33:15;;;;;;;91.82;9.35;;;;;;;;;;4972488;28;20265;-53
2023/10/14 09:35:41;;;;;;;197.50;47.22;;;;;;;;;;4969034;28;20085;-54
2023/10/14 09:38:08;;;;;;;139.90;33.22;;;;;;;;;;4970126;28;20395;-53
2023/10/14 09:40:34;;;;;;;308.95;199.27;;;;;;;;;;4969433;28;20034;-53
2023/10/14 09:42:59;;;;;;;117.43;4.95;;;;;;;;;;4970533;28;20034;-53
2023/10/14 09:45:25;;;;;;;185.25;70.95;;;;;;;;;;4969443;28;20038;-52
2023/10/14 09:47:52;;;;;;;123.55;9.80;;;;;;;;;;4970951;28;20030;-53
2023/10/14 09:50:18;;;;;;;219.93;70.95;;;;;;;;;;4966929;28;20057;-53
2023/10/14 09:52:45;;;;;;;172.70;7.68;;;;;;;;;;4970189;28;20121;-53
2023/10/14 09:55:14;;;;;;;134.95;5.50;;;;;;;;;;4967128;28;20125;-52
2023/10/14 09:57:43;;;;;;;167.57;7.45;;;;;;;;;;4968517;28;20022;-53
2023/10/14 10:00:10;;;;;;;106.85;4.47;;;;;;;;;;4970125;28;20053;-59
2023/10/14 10:02:36;;;;;;;143.88;6.25;;;;;;;;;;4969249;28;20089;-54
2023/10/14 10:05:03;;;;;;;91.13;4.10;;;;;;;;;;4969641;28;20058;-53
2023/10/14 10:07:47;;;;;;;134.07;5.70;;;;;;;;;;4970565;28;20065;-53
2023/10/14 10:10:13;;;;;;;93.63;18.83;;;;;;;;;;4970502;28;20066;-53
2023/10/14 10:12:41;;;;;;;152.13;6.53;;;;;;;;;;4970206;28;20058;-54
2023/10/14 10:15:07;;;;;;;95.95;4.28;;;;;;;;;;4968264;28;20076;-54
2023/10/14 10:17:39;;;;;;;144.50;6.15;;;;;;;;;;4969224;28;20022;-54
2023/10/14 10:20:17;;;;;;;175.20;7.00;;;;;;;;;;4968266;28;20027;-53
2023/10/14 10:22:50;;;;;;;135.18;6.07;;;;;;;;;;4969088;28;20053;-53
2023/10/14 10:25:16;;;;;;;156.32;6.40;;;;;;;;;;4969291;28;20035;-52
2023/10/14 10:27:42;;;;;;;194.73;8.23;;;;;;;;;;4969421;28;20549;-54
2023/10/14 10:30:11;;;;;;;107.82;4.80;;;;;;;;;;4970208;28;20041;-54
2023/10/14 10:32:38;;;;;;;197.90;8.38;;;;;;;;;;4970469;28;20054;-53
2023/10/14 10:35:06;;;;;;;83.88;3.75;;;;;;;;;;4970222;28;20101;-53
2023/10/14 10:37:35;;;;;;;137.43;5.72;;;;;;;;;;4967452;28;20054;-52
2023/10/14 10:40:05;;;;;;;134.38;5.60;;;;;;;;;;4969060;28;20029;-53
2023/10/14 10:42:31;;;;;;;112.75;4.85;;;;;;;;;;4969403;28;20045;-55
2023/10/14 10:44:56;;;;;;;105.97;4.80;;;;;;;;;;4967245;28;20029;-52
2023/10/14 10:47:22;;;;;;;121.47;5.30;;;;;;;;;;4967205;28;20042;-53
2023/10/14 10:49:58;;;;;;;228.73;9.52;;;;;;;;;;4966286;28;20030;-54
2023/10/14 10:52:25;;;;;;;144.30;5.90;;;;;;;;;;4968509;28;20085;-54
2023/10/14 10:54:51;;;;;;;145.55;6.18;;;;;;;;;;4966388;28;20026;-52
2023/10/14 10:57:17;;;;;;;118.93;5.28;;;;;;;;;;4970393;28;20037;-53
2023/10/14 10:59:42;;;;;;;194.73;8.60;;;;;;;;;;4966785;28;20026;-52
2023/10/14 11:02:11;;;;;;;67.80;3.60;;;;;;;;;;4967969;28;20173;-54
2023/10/14 11:04:38;;;;;;;215.07;8.68;;;;;;;;;;4967278;28;20340;-52
2023/10/14 11:07:05;;;;;;;95.20;4.50;;;;;;;;;;4970827;28;20043;-54
2023/10/14 11:09:31;;;;;;;143.63;6.18;;;;;;;;;;4969113;28;20026;-52
2023/10/14 11:12:03;;;;;;;113.20;5.13;;;;;;;;;;4967905;28;20130;-53
2023/10/14 11:14:28;;;;;;;;;;;;;;;;;;4969122;28;20027;-53
2023/10/14 11:16:57;;;;;;;131.65;5.93;;;;;;;;;;4967223;28;19918;-53
2023/10/14 11:19:24;;;;;;;149.70;6.55;;;;;;;;;;4967994;28;20039;-53
2023/10/14 11:21:51;;;;;;;167.48;7.47;;;;;;;;;;4964797;28;20030;-52
2023/10/14 11:24:16;;;;;;;131.02;5.80;;;;;;;;;;4968997;28;20042;-54
2023/10/14 11:26:44;;;;;;;191.85;8.82;;;;;;;;;;4972259;28;20031;-53
2023/10/14 11:29:10;;;;;;;119.25;5.97;;;;;;;;;;4970159;28;20517;-53
2023/10/14 11:31:36;;;;;;;133.18;6.50;;;;;;;;;;4966990;28;20042;-54
2023/10/14 11:34:01;;;;;;;130.48;6.57;;;;;;;;;;4970296;28;20371;-53
2023/10/14 11:36:27;;;;;;;132.02;6.15;;;;;;;;;;4968964;28;20073;-53
2023/10/14 11:38:53;;;;;;;195.13;9.00;;;;;;;;;;4966997;28;20046;-53
2023/10/14 11:41:20;;;;;;;97.68;4.72;;;;;;;;;;4965814;28;20043;-53
2023/10/14 11:43:45;;;;;;;136.32;5.95;;;;;;;;;;4966479;28;20062;-51
2023/10/14 11:46:11;;;;;;;209.57;8.18;;;;;;;;;;4961757;28;20070;-52
2023/10/14 11:48:38;;;;;;;117.10;5.25;;;;;;;;;;4963561;28;20081;-52
2023/10/14 11:51:04;;;;;;;109.00;5.10;;;;;;;;;;4969059;28;20034;-53
2023/10/14 11:53:32;;;;;;;93.15;4.35;;;;;;;;;;4969251;28;20473;-52
2023/10/14 11:56:02;;;;;;;132.30;5.82;;;;;;;;;;4971834;28;20865;-52
2023/10/14 11:58:28;;;;;;;198.40;8.18;;;;;;;;;;4968839;28;20034;-53
2023/10/14 12:00:53;;;;;;;227.68;9.25;;;;;;;;;;4969831;28;20088;-53
2023/10/14 12:03:19;;;;;;;149.07;6.15;;;;;;;;;;4966917;28;20026;-54
2023/10/14 12:05:44;;;;;;;251.23;10.13;;;;;;;;;;4967036;28;20726;-53
2023/10/14 12:08:09;;;;;;;184.85;13.80;;;;;;;;;;4966602;28;20251;-54
2023/10/14 12:10:35;;;;;;;161.23;19.20;;;;;;;;;;4964964;28;20051;-55
2023/10/14 12:13:00;;;;;;;157.43;7.05;;;;;;;;;;4963796;28;20548;-54
2023/10/14 12:15:25;;;;;;;159.80;6.90;;;;;;;;;;4963557;28;20093;-54
2023/10/14 12:17:52;;;;;;;199.23;9.23;;;;;;;;;;4963937;28;20026;-53
2023/10/14 12:20:17;;;;;;;87.55;4.40;;;;;;;;;;4964772;28;20206;-53
2023/10/14 12:22:43;;;;;;;175.38;8.05;;;;;;;;;;4964245;28;20030;-54
2023/10/14 12:25:08;;;;;;;113.53;5.15;;;;;;;;;;4965888;28;20023;-53
2023/10/14 12:27:35;;;;;;;114.18;5.30;;;;;;;;;;4968577;28;20030;-54
2023/10/14 12:30:01;;;;;;;195.25;8.10;;;;;;;;;;4964718;28;20019;-55
2023/10/14 12:32:32;;;;;;;158.05;6.65;;;;;;;;;;4966373;28;20040;-55
2023/10/14 12:35:04;;;;;;;181.32;7.40;;;;;;;;;;4962228;28;20372;-55
2023/10/14 12:37:30;;;;;;;116.10;5.18;;;;;;;;;;4966383;28;20088;-55
2023/10/14 12:39:56;;;;;;;224.52;9.70;;;;;;;;;;4963794;28;20026;-54
2023/10/14 12:42:23;;;;;;;122.40;5.43;;;;;;;;;;4964432;28;20419;-53
2023/10/14 12:44:57;;;;;;;209.40;9.02;;;;;;;;;;4965171;28;20026;-54
2023/10/14 12:47:24;;;;;;;169.77;6.75;;;;;;;;;;4965363;28;20125;-53
2023/10/14 12:49:50;;;;;;;225.20;9.52;;;;;;;;;;4965097;28;20031;-56
2023/10/14 12:52:15;;;;;;;140.18;6.10;;;;;;;;;;4965374;28;20038;-55
2023/10/14 12:54:49;;;;;;;155.85;6.85;;;;;;;;;;4965358;28;20023;-53
2023/10/14 12:57:14;;;;;;;133.43;5.60;;;;;;;;;;4964821;28;20606;-55
2023/10/14 12:59:40;;;;;;;212.18;8.63;;;;;;;;;;4964299;28;20494;-55
2023/10/14 13:02:08;;;;;;;190.93;7.93;;;;;;;;;;4964745;28;20672;-54
2023/10/14 13:04:34;;;;;;;141.82;6.10;;;;;;;;;;4966920;28;20023;-55
2023/10/14 13:06:59;;;;;;;161.35;7.00;;;;;;;;;;4962707;28;20047;-53
2023/10/14 13:09:27;;;;;;;196.43;8.15;;;;;;;;;;4965320;28;20097;-55
2023/10/14 13:11:55;;;;;;;161.27;7.40;;;;;;;;;;4962741;28;20399;-53
2023/10/14 13:14:26;;;;;;;127.80;6.25;;;;;;;;;;4965307;28;20117;-53
2023/10/14 13:16:52;;;;;;;246.03;11.13;;;;;;;;;;4966289;28;20124;-52
2023/10/14 13:19:18;;;;;;;145.57;6.65;;;;;;;;;;4966226;28;20066;-52
2023/10/14 13:21:43;;;;;;;187.45;8.48;;;;;;;;;;4962750;28;20517;-55
2023/10/14 13:24:11;;;;;;;157.60;6.95;;;;;;;;;;4965346;28;20291;-54
2023/10/14 13:26:37;;;;;;;206.85;8.55;;;;;;;;;;4964030;28;20035;-54
2023/10/14 13:29:03;;;;;;;211.50;8.98;;;;;;;;;;4964499;28;20371;-55
2023/10/14 13:31:30;;;;;;;120.30;5.82;;;;;;;;;;4967144;28;20692;-54
2023/10/14 13:33:55;;;;;;;226.73;9.97;;;;;;;;;;4967071;28;20042;-54
2023/10/14 13:36:20;;;;;;;137.37;6.37;;;;;;;;;;4967715;28;20814;-55
2023/10/14 13:38:47;;;;;;;159.00;6.88;;;;;;;;;;4967653;28;20812;-54
2023/10/14 13:41:15;;;;;;;136.48;6.20;;;;;;;;;;4966167;28;20104;-55
2023/10/14 13:43:41;;;;;;;126.43;5.70;;;;;;;;;;4968153;28;20037;-54
2023/10/14 13:46:07;;;;;;;180.50;7.65;;;;;;;;;;4965986;28;20050;-55
2023/10/14 13:48:33;;;;;;;189.60;7.72;;;;;;;;;;4969359;28;20030;-54
2023/10/14 13:50:59;;;;;;;156.60;6.50;;;;;;;;;;4971183;28;20299;-53
2023/10/14 13:53:25;;;;;;;160.60;6.85;;;;;;;;;;4969737;28;20398;-54
2023/10/14 13:55:54;;;;;;;193.23;7.95;;;;;;;;;;4966947;28;20062;-55
2023/10/14 13:58:19;;;;;;;74.55;3.85;;;;;;;;;;4968576;28;20038;-53
2023/10/14 14:00:49;;;;;;;129.80;6.03;;;;;;;;;;4966783;28;20022;-54
2023/10/14 14:03:15;;;;;;;140.60;5.97;;;;;;;;;;4969830;28;20574;-55
2023/10/14 14:05:41;;;;;;;106.67;5.03;;;;;;;;;;4966888;28;20039;-53
2023/10/14 14:08:09;;;;;;;154.10;6.25;;;;;;;;;;4967408;28;20274;-54
2023/10/14 14:10:35;;;;;;;227.38;8.80;;;;;;;;;;4965916;28;20038;-54
2023/10/14 14:13:02;;;;;;;244.90;10.30;;;;;;;;;;4966009;28;20088;-54
2023/10/14 14:15:28;;;;;;;163.65;6.75;;;;;;;;;;4966575;28;20700;-53
2023/10/14 14:17:54;;;;;;;212.00;9.35;;;;;;;;;;4968002;28;20022;-54
2023/10/14 14:20:19;;;;;;;135.05;5.70;;;;;;;;;;4966749;28;20058;-55
2023/10/14 14:22:45;;;;;;;124.38;5.47;;;;;;;;;;4966503;28;20077;-55
2023/10/14 14:25:12;;;;;;;93.43;4.15;;;;;;;;;;4967422;28;20508;-54
2023/10/14 14:27:38;;;;;;;106.82;5.30;;;;;;;;;;4968716;28;20031;-54
2023/10/14 14:30:07;;;;;;;167.77;7.35;;;;;;;;;;4965365;28;20089;-54
2023/10/14 14:32:36;;;;;;;173.82;7.20;;;;;;;;;;4968933;28;20042;-53
2023/10/14 14:35:02;;;;;;;246.25;11.15;;;;;;;;;;4970714;28;20093;-55
2023/10/14 14:37:28;;;;;;;214.30;9.15;;;;;;;;;;4970874;28;20615;-53
2023/10/14 14:39:55;;;;;;;253.00;11.47;;;;;;;;;;4969719;28;20022;-55
2023/10/14 14:42:21;;;;;;;76.15;4.28;;;;;;;;;;4968645;28;20285;-53
2023/10/14 14:44:46;;;;;;;144.13;6.43;;;;;;;;;;4966775;28;20028;-54
2023/10/14 14:47:14;;;;;;;138.45;5.93;;;;;;;;;;4969977;28;20411;-53